createdAt,value
2019-04-07T00:01:27.411Z,0.85
2019-04-07T00:03:54.956Z,0.93
2019-04-07T00:06:22.499Z,0.88
2019-04-07T00:08:49.765Z,1.00
2019-04-07T00:11:17.456Z,0.60
2019-04-07T00:13:44.769Z,0.78
2019-04-07T00:16:12.087Z,1.00
2019-04-07T00:18:38.874Z,1.02
2019-04-07T00:21:06.214Z,0.95
2019-04-07T00:23:33.556Z,1.00
2019-04-07T00:26:00.594Z,0.80
2019-04-07T00:28:27.567Z,1.00
2019-04-07T00:30:54.836Z,1.32
2019-04-07T00:33:22.725Z,0.72
2019-04-07T00:35:49.745Z,0.88
2019-04-07T00:38:17.688Z,1.57
2019-04-07T00:40:44.965Z,0.88
2019-04-07T00:43:12.179Z,1.00
2019-04-07T00:45:39.514Z,1.45
2019-04-07T00:48:06.892Z,1.45
2019-04-07T00:50:33.796Z,0.80
2019-04-07T00:53:00.472Z,1.05
2019-04-07T00:55:27.275Z,1.00
2019-04-07T00:57:54.092Z,0.80
2019-04-07T01:00:23.472Z,0.98
2019-04-07T01:02:50.554Z,0.90
2019-04-07T01:05:17.970Z,0.70
2019-04-07T01:07:45.201Z,0.70
2019-04-07T01:10:12.693Z,0.70
2019-04-07T01:12:39.958Z,0.70
2019-04-07T01:15:08.692Z,0.82
2019-04-07T01:17:35.567Z,1.42
2019-04-07T01:20:07.620Z,0.98
2019-04-07T01:22:34.697Z,0.90
2019-04-07T01:25:01.683Z,0.80
2019-04-07T01:27:28.667Z,0.72
2019-04-07T01:29:55.485Z,0.60
2019-04-07T01:32:22.506Z,1.05
2019-04-07T01:34:49.459Z,0.78
2019-04-07T01:37:16.288Z,0.50
2019-04-07T01:39:43.808Z,0.60
2019-04-07T01:42:15.559Z,0.30
2019-04-07T01:45:01.506Z,0.30
2019-04-07T01:47:30.620Z,0.23
2019-04-07T01:50:02.233Z,0.37
2019-04-07T01:52:50.353Z,0.40
2019-04-07T01:55:17.161Z,0.62
2019-04-07T01:58:03.097Z,0.40
2019-04-07T02:00:32.490Z,0.33
2019-04-07T02:02:59.925Z,0.53
2019-04-07T02:05:56.299Z,0.50
2019-04-07T02:08:33.923Z,0.50
2019-04-07T02:11:03.713Z,0.50
2019-04-07T02:13:48.240Z,0.30
2019-04-07T02:16:28.589Z,0.40
2019-04-07T02:18:57.598Z,0.50
2019-04-07T02:21:26.182Z,0.50
2019-04-07T02:24:10.372Z,0.40
2019-04-07T02:26:37.785Z,0.33
2019-04-07T02:29:17.040Z,0.40
2019-04-07T02:31:49.942Z,0.40
2019-04-07T02:34:36.029Z,0.40
2019-04-07T02:37:06.608Z,0.40
2019-04-07T02:42:05.833Z,0.45
2019-04-07T02:44:34.444Z,0.80
2019-04-07T02:47:03.924Z,0.57
2019-04-07T02:49:32.886Z,0.40
2019-04-07T02:52:09.120Z,0.60
2019-04-07T02:54:38.060Z,0.60
2019-04-07T02:57:14.232Z,0.40
2019-04-07T02:59:42.914Z,0.37
2019-04-07T03:02:15.692Z,0.40
2019-04-07T03:04:44.499Z,0.50
2019-04-07T03:07:11.672Z,0.98
2019-04-07T03:09:43.954Z,0.62
2019-04-07T03:12:23.451Z,0.40
2019-04-07T03:14:58.691Z,0.47
2019-04-07T03:17:27.486Z,0.50
2019-04-07T03:20:03.338Z,0.93
2019-04-07T03:22:32.495Z,0.57
2019-04-07T03:25:01.358Z,0.60
2019-04-07T03:27:36.315Z,0.50
2019-04-07T03:30:11.331Z,0.60
2019-04-07T03:32:57.946Z,0.60
2019-04-07T03:35:32.678Z,0.65
2019-04-07T03:38:17.135Z,0.50
2019-04-07T03:40:46.534Z,0.70
2019-04-07T03:43:15.440Z,0.62
2019-04-07T03:45:43.644Z,0.62
2019-04-07T03:48:18.387Z,0.50
2019-04-07T03:50:46.986Z,0.40
2019-04-07T03:53:13.829Z,0.62
2019-04-07T03:55:40.933Z,0.42
2019-04-07T03:58:08.293Z,0.40
2019-04-07T04:01:19.577Z,0.60
2019-04-07T04:03:52.147Z,0.37
2019-04-07T04:06:19.411Z,0.50
2019-04-07T04:08:54.977Z,0.30
2019-04-07T04:11:27.396Z,0.57
2019-04-07T04:13:56.451Z,0.60
2019-04-07T04:16:24.920Z,0.50
2019-04-07T04:18:52.609Z,0.50
2019-04-07T04:21:19.805Z,0.55
2019-04-07T04:23:46.877Z,0.35
2019-04-07T04:26:13.871Z,0.50
2019-04-07T04:28:40.884Z,0.30
2019-04-07T04:31:07.948Z,0.37
2019-04-07T04:33:34.991Z,0.50
2019-04-07T04:36:02.775Z,0.40
2019-04-07T04:38:29.996Z,0.40
2019-04-07T04:40:58.079Z,0.40
2019-04-07T04:43:25.364Z,0.40
2019-04-07T04:45:53.476Z,0.37
2019-04-07T04:48:20.690Z,0.72
2019-04-07T04:50:47.479Z,0.50
2019-04-07T04:53:14.983Z,0.40
2019-04-07T04:55:42.196Z,0.45
2019-04-07T04:58:09.990Z,0.40
2019-04-07T05:00:38.437Z,0.40
2019-04-07T05:03:05.383Z,0.68
2019-04-07T05:05:32.181Z,0.40
2019-04-07T05:08:03.631Z,0.40
2019-04-07T05:10:27.768Z,0.42
2019-04-07T05:12:55.020Z,0.50
2019-04-07T05:15:22.087Z,0.40
2019-04-07T05:17:49.275Z,0.40
2019-04-07T05:20:16.225Z,0.57
2019-04-07T05:22:43.418Z,0.50
2019-04-07T05:25:10.574Z,0.40
2019-04-07T05:27:37.364Z,0.40
2019-04-07T05:30:07.729Z,0.75
2019-04-07T05:32:34.666Z,0.60
2019-04-07T05:35:02.309Z,0.60
2019-04-07T05:37:29.575Z,0.57
2019-04-07T05:39:56.542Z,0.50
2019-04-07T05:42:23.527Z,0.50
2019-04-07T05:44:50.684Z,1.65
2019-04-07T05:47:17.804Z,0.70
2019-04-07T05:49:44.637Z,0.70
2019-04-07T05:52:12.761Z,0.93
2019-04-07T05:54:40.409Z,0.40
2019-04-07T05:57:07.631Z,0.42
2019-04-07T05:59:34.475Z,0.53
2019-04-07T06:02:02.800Z,0.70
2019-04-07T06:04:30.342Z,1.12
2019-04-07T06:06:58.059Z,0.90
2019-04-07T06:09:25.209Z,0.70
2019-04-07T06:11:52.268Z,0.55
2019-04-07T06:14:19.504Z,0.50
2019-04-07T06:16:46.813Z,0.40
2019-04-07T06:19:13.880Z,0.72
2019-04-07T06:21:41.530Z,0.98
2019-04-07T06:24:08.966Z,0.50
2019-04-07T06:26:36.409Z,0.50
2019-04-07T06:29:03.992Z,0.95
2019-04-07T06:31:32.191Z,2.45
2019-04-07T06:33:59.489Z,2.45
2019-04-07T06:36:26.855Z,2.25
2019-04-07T06:38:54.749Z,2.58
2019-04-07T06:41:23.914Z,1.22
2019-04-07T06:43:50.716Z,1.00
2019-04-07T06:46:17.510Z,0.90
2019-04-07T06:48:49.117Z,0.72
2019-04-07T06:51:18.914Z,1.10
2019-04-07T06:53:51.432Z,0.70
2019-04-07T06:56:26.124Z,1.12
2019-04-07T06:58:55.633Z,1.15
2019-04-07T07:01:39.650Z,0.73
2019-04-07T07:04:13.723Z,0.70
2019-04-07T07:06:48.410Z,0.80
2019-04-07T07:09:23.442Z,0.40
2019-04-07T07:11:50.761Z,0.70
2019-04-07T07:14:35.463Z,0.62
2019-04-07T07:17:17.003Z,0.60
2019-04-07T07:20:03.546Z,0.40
2019-04-07T07:22:46.751Z,0.50
2019-04-07T07:25:13.255Z,0.30
2019-04-07T07:27:41.707Z,1.95
2019-04-07T07:30:09.034Z,0.50
2019-04-07T07:32:37.343Z,0.50
2019-04-07T07:35:06.320Z,0.70
2019-04-07T07:37:33.417Z,0.40
2019-04-07T07:40:00.964Z,0.60
2019-04-07T07:42:27.844Z,0.40
2019-04-07T07:44:55.029Z,0.35
2019-04-07T07:47:22.685Z,0.30
2019-04-07T07:49:50.905Z,0.30
2019-04-07T07:52:20.503Z,0.47
2019-04-07T07:54:46.709Z,1.75
2019-04-07T07:57:13.487Z,0.40
2019-04-07T07:59:40.472Z,2.65
2019-04-07T08:02:07.588Z,0.30
2019-04-07T08:04:34.650Z,1.22
2019-04-07T08:07:02.636Z,0.42
2019-04-07T08:09:30.653Z,0.30
2019-04-07T08:11:57.823Z,0.42
2019-04-07T08:14:24.889Z,0.62
2019-04-07T08:16:52.389Z,0.40
2019-04-07T08:19:20.093Z,1.07
2019-04-07T08:21:50.339Z,0.88
2019-04-07T08:24:18.560Z,0.30
2019-04-07T08:26:44.960Z,0.55
2019-04-07T08:29:12.985Z,0.35
2019-04-07T08:31:40.490Z,0.30
2019-04-07T08:34:07.824Z,0.50
2019-04-07T08:36:35.270Z,0.50
2019-04-07T08:39:06.105Z,0.40
2019-04-07T08:41:34.146Z,0.42
2019-04-07T08:44:01.744Z,0.30
2019-04-07T08:46:32.067Z,0.40
2019-04-07T08:49:01.907Z,0.47
2019-04-07T08:51:31.653Z,0.80
2019-04-07T08:53:58.572Z,0.40
2019-04-07T08:56:26.593Z,0.40
2019-04-07T08:58:54.355Z,0.40
2019-04-07T09:01:22.036Z,1.92
2019-04-07T09:03:48.772Z,0.40
2019-04-07T09:06:16.317Z,0.60
2019-04-07T09:08:43.977Z,0.80
2019-04-07T09:11:13.111Z,0.95
2019-04-07T09:13:43.022Z,0.50
2019-04-07T09:16:17.359Z,0.80
2019-04-07T09:18:53.641Z,0.80
2019-04-07T09:21:41.423Z,0.80
2019-04-07T09:24:07.140Z,0.60
2019-04-07T09:26:36.584Z,0.50
2019-04-07T09:29:06.624Z,0.50
2019-04-07T09:31:35.226Z,1.30
2019-04-07T09:34:04.241Z,1.10
2019-04-07T09:36:50.172Z,0.57
2019-04-07T09:39:21.111Z,0.50
2019-04-07T09:41:52.602Z,0.70
2019-04-07T09:44:19.733Z,0.50
2019-04-07T09:47:00.873Z,0.40
2019-04-07T09:49:48.455Z,0.37
2019-04-07T09:52:17.663Z,0.50
2019-04-07T09:54:46.455Z,0.60
2019-04-07T09:57:35.482Z,0.50
2019-04-07T10:00:21.571Z,0.40
2019-04-07T10:03:08.549Z,0.50
2019-04-07T10:05:42.017Z,0.50
2019-04-07T10:08:18.289Z,0.33
2019-04-07T10:11:04.233Z,0.40
2019-04-07T10:13:51.235Z,0.53
2019-04-07T10:16:21.170Z,0.35
2019-04-07T10:18:50.864Z,0.30
2019-04-07T10:21:30.041Z,0.55
2019-04-07T10:24:06.264Z,0.30
2019-04-07T10:26:38.028Z,0.40
2019-04-07T10:29:07.685Z,0.35
2019-04-07T10:31:37.632Z,0.28
2019-04-07T10:34:23.711Z,0.28
2019-04-07T10:36:53.569Z,0.50
2019-04-07T10:39:25.169Z,0.37
2019-04-07T10:42:10.335Z,0.40
2019-04-07T10:44:42.338Z,0.68
2019-04-07T10:47:17.162Z,0.50
2019-04-07T10:50:07.226Z,0.50
2019-04-07T10:52:42.544Z,0.40
2019-04-07T10:55:20.784Z,0.70
2019-04-07T10:57:48.147Z,0.50
2019-04-07T11:00:33.796Z,0.60
2019-04-07T11:03:08.948Z,0.70
2019-04-07T11:05:36.282Z,0.40
2019-04-07T11:08:16.980Z,0.40
2019-04-07T11:10:57.874Z,0.40
2019-04-07T11:16:01.878Z,0.40
2019-04-07T11:18:33.713Z,0.30
2019-04-07T11:21:03.411Z,0.42
2019-04-07T11:23:32.976Z,0.40
2019-04-07T11:26:12.385Z,0.60
2019-04-07T11:28:41.250Z,0.60
2019-04-07T11:31:10.285Z,0.40
2019-04-07T11:33:39.494Z,0.30
2019-04-07T11:36:08.417Z,0.40
2019-04-07T11:38:35.415Z,0.40
2019-04-07T11:41:05.767Z,0.40
2019-04-07T11:43:32.767Z,0.60
2019-04-07T11:46:09.041Z,0.47
2019-04-07T11:48:50.370Z,0.40
2019-04-07T11:51:20.620Z,0.30
2019-04-07T11:54:06.155Z,0.45
2019-04-07T11:56:32.939Z,0.40
2019-04-07T11:59:14.807Z,0.33
2019-04-07T12:01:51.505Z,0.37
2019-04-07T12:04:29.522Z,0.62
2019-04-07T12:07:12.727Z,0.45
2019-04-07T12:09:43.131Z,0.40
2019-04-07T12:12:15.685Z,0.53
2019-04-07T12:14:45.508Z,0.40
2019-04-07T12:17:27.452Z,0.50
2019-04-07T12:19:57.158Z,0.57
2019-04-07T12:22:27.150Z,0.50
2019-04-07T12:25:00.666Z,0.40
2019-04-07T12:27:45.199Z,0.50
2019-04-07T12:30:16.548Z,0.50
2019-04-07T12:32:47.799Z,0.60
2019-04-07T12:35:32.508Z,0.40
2019-04-07T12:38:05.237Z,0.40
2019-04-07T12:40:37.710Z,0.40
2019-04-07T12:43:21.833Z,0.70
2019-04-07T12:45:50.587Z,0.60
2019-04-07T12:48:21.196Z,0.65
2019-04-07T12:50:51.108Z,0.50
2019-04-07T12:53:20.755Z,0.95
2019-04-07T12:55:56.972Z,0.57
2019-04-07T12:58:25.487Z,0.70
2019-04-07T13:00:59.430Z,0.57
2019-04-07T13:03:28.890Z,0.53
2019-04-07T13:05:56.330Z,0.60
2019-04-07T13:08:28.598Z,0.65
2019-04-07T13:10:59.138Z,0.70
2019-04-07T13:13:33.622Z,0.70
2019-04-07T13:16:07.949Z,0.65
2019-04-07T13:18:52.983Z,0.42
2019-04-07T13:21:27.904Z,0.47
2019-04-07T13:24:06.289Z,0.60
2019-04-07T13:26:36.606Z,0.50
2019-04-07T13:29:06.389Z,0.70
2019-04-07T13:31:44.040Z,0.57
2019-04-07T13:34:20.021Z,0.70
2019-04-07T13:36:53.005Z,0.82
2019-04-07T13:39:41.893Z,0.70
2019-04-07T13:42:15.288Z,0.47
2019-04-07T13:45:01.480Z,0.70
2019-04-07T13:47:33.004Z,0.70
2019-04-07T13:50:07.548Z,0.50
2019-04-07T13:52:57.812Z,0.60
2019-04-07T13:55:26.190Z,0.68
2019-04-07T13:57:58.507Z,0.75
2019-04-07T14:00:46.361Z,0.60
2019-04-07T14:03:25.541Z,0.68
2019-04-07T14:05:55.449Z,0.50
2019-04-07T14:08:34.954Z,0.68
2019-04-07T14:11:13.333Z,0.53
2019-04-07T14:13:44.788Z,0.53
2019-04-07T14:16:22.301Z,0.60
2019-04-07T14:19:01.338Z,0.70
2019-04-07T14:21:37.438Z,0.53
2019-04-07T14:24:13.302Z,0.60
2019-04-07T14:26:42.385Z,0.78
2019-04-07T14:29:16.973Z,0.40
2019-04-07T14:32:02.163Z,0.82
2019-04-07T14:34:37.194Z,0.60
2019-04-07T14:37:04.376Z,0.70
2019-04-07T14:39:48.834Z,0.60
2019-04-07T14:42:17.711Z,0.50
2019-04-07T14:44:55.584Z,0.78
2019-04-07T14:47:22.808Z,0.60
2019-04-07T14:49:52.114Z,0.72
2019-04-07T14:52:41.111Z,0.72
2019-04-07T14:55:14.070Z,0.90
2019-04-07T14:57:41.510Z,0.82
2019-04-07T15:00:20.418Z,0.88
2019-04-07T15:02:47.771Z,0.70
2019-04-07T15:05:23.168Z,0.70
2019-04-07T15:08:00.136Z,0.60
2019-04-07T15:10:29.345Z,0.88
2019-04-07T15:13:01.717Z,0.80
2019-04-07T15:15:28.863Z,0.85
2019-04-07T15:17:55.746Z,0.60
2019-04-07T15:20:22.642Z,0.60
2019-04-07T15:22:49.839Z,0.50
2019-04-07T15:25:16.658Z,1.07
2019-04-07T15:27:43.451Z,0.60
2019-04-07T15:30:14.382Z,0.62
2019-04-07T15:32:39.536Z,0.98
2019-04-07T15:35:06.584Z,0.88
2019-04-07T15:37:34.715Z,0.85
2019-04-07T15:40:04.711Z,0.88
2019-04-07T15:42:38.987Z,0.78
2019-04-07T15:44:59.140Z,0.82
2019-04-07T15:47:26.582Z,1.65
2019-04-07T15:49:54.077Z,1.05
2019-04-07T15:52:21.846Z,1.10
2019-04-07T15:54:49.022Z,0.93
2019-04-07T15:57:18.281Z,0.62
2019-04-07T15:59:45.006Z,0.70
2019-04-07T16:02:13.315Z,0.80
2019-04-07T16:04:40.759Z,0.88
2019-04-07T16:07:09.109Z,0.72
2019-04-07T16:09:45.198Z,1.17
2019-04-07T16:12:06.408Z,0.88
2019-04-07T16:14:33.431Z,1.07
2019-04-07T16:17:03.194Z,0.78
2019-04-07T16:19:38.196Z,0.72
2019-04-07T16:21:58.550Z,0.80
2019-04-07T16:24:25.780Z,0.90
2019-04-07T16:26:52.739Z,0.95
2019-04-07T16:29:20.357Z,0.80
2019-04-07T16:31:48.942Z,0.70
2019-04-07T16:34:16.538Z,0.85
2019-04-07T16:36:43.853Z,0.93
2019-04-07T16:39:11.397Z,0.90
2019-04-07T16:41:39.270Z,0.60
2019-04-07T16:44:08.487Z,1.15
2019-04-07T16:46:35.650Z,1.35
2019-04-07T16:49:02.632Z,1.57
2019-04-07T16:51:31.726Z,1.42
2019-04-07T16:53:58.983Z,2.15
2019-04-07T16:56:26.597Z,1.90
2019-04-07T16:58:53.819Z,2.55
2019-04-07T17:01:20.591Z,1.30
2019-04-07T17:03:47.371Z,0.88
2019-04-07T17:06:14.711Z,0.80
2019-04-07T17:08:42.299Z,0.90
2019-04-07T17:11:09.721Z,1.10
2019-04-07T17:13:41.300Z,1.42
2019-04-07T17:16:05.952Z,1.72
2019-04-07T17:18:41.118Z,0.75
2019-04-07T17:21:15.622Z,0.75
2019-04-07T17:23:43.794Z,1.07
2019-04-07T17:26:13.610Z,1.17
2019-04-07T17:28:44.470Z,0.90
2019-04-07T17:31:09.547Z,1.10
2019-04-07T17:33:37.938Z,0.70
2019-04-07T17:36:05.910Z,0.93
2019-04-07T17:38:45.347Z,0.75
2019-04-07T17:41:14.378Z,0.55
2019-04-07T17:43:51.449Z,0.80
2019-04-07T17:46:10.427Z,0.93
2019-04-07T17:48:58.560Z,1.30
2019-04-07T17:51:28.728Z,0.70
2019-04-07T17:53:57.346Z,1.05
2019-04-07T17:56:29.829Z,0.90
2019-04-07T17:58:54.943Z,1.05
2019-04-07T18:01:24.986Z,1.02
2019-04-07T18:03:58.340Z,0.70
2019-04-07T18:06:31.108Z,0.90
2019-04-07T18:09:07.103Z,1.10
2019-04-07T18:11:28.905Z,1.87
2019-04-07T18:14:02.563Z,2.00
2019-04-07T18:16:38.336Z,1.40
2019-04-07T18:19:15.868Z,1.52
2019-04-07T18:22:01.256Z,2.02
2019-04-07T18:24:46.146Z,1.82
2019-04-07T18:27:17.151Z,1.30
2019-04-07T18:30:01.151Z,1.60
2019-04-07T18:32:41.773Z,0.98
2019-04-07T18:35:30.785Z,1.07
2019-04-07T18:38:00.152Z,0.75
2019-04-07T18:40:37.723Z,2.92
2019-04-07T18:43:24.486Z,1.32
2019-04-07T18:45:57.811Z,1.20
2019-04-07T18:48:43.509Z,0.93
2019-04-07T18:51:13.862Z,0.60
2019-04-07T18:53:40.661Z,0.78
2019-04-07T18:56:13.021Z,0.70
2019-04-07T18:58:50.770Z,5.58
2019-04-07T19:01:17.022Z,0.98
2019-04-07T19:03:44.001Z,0.70
2019-04-07T19:06:16.553Z,1.07
2019-04-07T19:08:53.774Z,1.02
2019-04-07T19:11:19.065Z,2.15
2019-04-07T19:13:46.869Z,0.80
2019-04-07T19:16:23.432Z,0.80
2019-04-07T19:18:50.757Z,0.70
2019-04-07T19:21:38.774Z,0.72
2019-04-07T19:24:11.664Z,0.78
2019-04-07T19:26:57.382Z,0.75
2019-04-07T19:29:44.256Z,0.88
2019-04-07T19:32:13.465Z,1.10
2019-04-07T19:34:45.964Z,1.10
2019-04-07T19:37:32.442Z,1.67
2019-04-07T19:40:16.691Z,1.40
2019-04-07T19:43:12.546Z,0.55
2019-04-07T19:45:54.538Z,0.88
2019-04-07T19:48:40.488Z,1.30
2019-04-07T19:51:09.989Z,2.37
2019-04-07T19:53:36.996Z,1.12
2019-04-07T19:56:15.632Z,0.88
2019-04-07T19:58:50.095Z,1.40
2019-04-07T20:01:20.673Z,1.45
2019-04-07T20:04:05.314Z,3.42
2019-04-07T20:06:55.412Z,1.20
2019-04-07T20:09:21.080Z,1.42
2019-04-07T20:12:02.875Z,1.70
2019-04-07T20:14:47.557Z,1.32
2019-04-07T20:17:16.527Z,1.25
2019-04-07T20:19:47.692Z,1.50
2019-04-07T20:22:33.319Z,1.90
2019-04-07T20:25:18.437Z,1.05
2019-04-07T20:28:02.538Z,1.32
2019-04-07T20:30:31.328Z,0.60
2019-04-07T20:33:12.052Z,0.50
2019-04-07T20:35:48.028Z,1.47
2019-04-07T20:38:15.916Z,2.83
2019-04-07T20:40:53.886Z,4.40
2019-04-07T20:43:40.508Z,3.90
2019-04-07T20:46:17.027Z,3.17
2019-04-07T20:48:50.245Z,2.15
2019-04-07T20:51:22.117Z,2.40
2019-04-07T20:53:51.505Z,2.40
2019-04-07T20:56:21.271Z,2.15
2019-04-07T20:59:06.618Z,2.20
2019-04-07T21:01:38.691Z,3.37
2019-04-07T21:04:13.183Z,3.50
2019-04-07T21:06:47.742Z,3.42
2019-04-07T21:09:35.404Z,4.10
2019-04-07T21:12:21.010Z,3.40
2019-04-07T21:15:01.039Z,4.05
2019-04-07T21:17:29.394Z,3.62
2019-04-07T21:20:14.864Z,3.83
2019-04-07T21:22:46.567Z,3.20
2019-04-07T21:25:31.846Z,4.60
2019-04-07T21:28:03.447Z,3.62
2019-04-07T21:30:31.177Z,3.33
2019-04-07T21:33:17.409Z,3.55
2019-04-07T21:35:56.036Z,3.72
2019-04-07T21:38:34.885Z,3.98
2019-04-07T21:41:12.178Z,4.25
2019-04-07T21:43:38.363Z,3.75
2019-04-07T21:46:24.813Z,4.35
2019-04-07T21:49:10.389Z,5.75
2019-04-07T21:51:46.507Z,5.33
2019-04-07T21:54:21.562Z,5.95
2019-04-07T21:56:54.434Z,7.35
2019-04-07T21:59:32.129Z,6.80
2019-04-07T22:02:12.197Z,6.05
2019-04-07T22:04:44.154Z,5.50
2019-04-07T22:07:22.872Z,6.40
2019-04-07T22:09:54.662Z,6.75
2019-04-07T22:12:25.811Z,6.80
2019-04-07T22:14:50.661Z,7.35
2019-04-07T22:17:17.635Z,6.58
2019-04-07T22:19:46.524Z,5.05
2019-04-07T22:22:13.077Z,5.62
2019-04-07T22:24:40.194Z,4.22
2019-04-07T22:27:07.237Z,4.67
2019-04-07T22:29:34.933Z,4.92
2019-04-07T22:32:03.365Z,4.70
2019-04-07T22:34:32.766Z,4.40
2019-04-07T22:36:59.104Z,5.05
2019-04-07T22:39:28.908Z,4.37
2019-04-07T22:41:56.976Z,5.33
2019-04-07T22:44:24.474Z,4.65
2019-04-07T22:46:52.339Z,4.70
2019-04-07T22:49:19.796Z,4.78
2019-04-07T22:51:49.054Z,4.70
2019-04-07T22:54:15.599Z,6.03
2019-04-07T22:56:42.576Z,4.50
2019-04-07T22:59:10.476Z,4.65
2019-04-07T23:01:38.951Z,3.67
2019-04-07T23:04:06.008Z,4.20
2019-04-07T23:06:32.990Z,4.58
2019-04-07T23:09:00.142Z,5.05
2019-04-07T23:11:27.853Z,4.92
2019-04-07T23:13:55.525Z,4.47
2019-04-07T23:16:22.602Z,4.53
2019-04-07T23:18:49.967Z,4.00
2019-04-07T23:21:17.281Z,4.85
2019-04-07T23:23:44.323Z,4.90
2019-04-07T23:26:11.229Z,5.28
2019-04-07T23:28:38.002Z,5.25
2019-04-07T23:31:05.458Z,4.58
2019-04-07T23:33:32.430Z,4.83
2019-04-07T23:35:59.722Z,5.30
2019-04-07T23:38:28.786Z,5.60
2019-04-07T23:40:56.175Z,4.60
2019-04-07T23:43:23.148Z,5.28
2019-04-07T23:45:49.888Z,5.70
2019-04-07T23:48:16.745Z,5.78
2019-04-07T23:50:43.599Z,6.55
2019-04-07T23:54:07.551Z,8.53
2019-04-07T23:56:35.685Z,7.90
2019-04-07T23:59:03.915Z,11.00
